Indianapolis, Indiana
Traffic Map
Current Weather Conditions
Indianapolis, Indiana
Few Clouds
Few Clouds
63°
Feels Like: 63°
Wind Chill: 63° Ceiling: Unl
Heat Index: 63° Visibility: 10mi
Dew Point: 40° Wind: 0mph
Humidity: 43% Direction: ° ()
Pressure: 30.29in Gusts: 0mph
Raw Report DataKIND 181554Z 00000KT 10SM FEW055 FEW150 17/04 A3029 RMK AO2 SLP256 T01720044
Traffic Incident Summary
Active as of:
Severity:
Category:
InformationThere was an issue retrieving the traffic information for this location. Please try a different location or try again shortly.
Advertisements
At Last! Intellicast now available for iPhone and Android